createdAt,value
2023-01-15T14:46:47.385Z,69.07
2023-01-15T14:47:47.338Z,68.74
2023-01-15T14:48:47.341Z,68.22
2023-01-15T14:49:47.370Z,68.84
2023-01-15T14:50:47.296Z,69.15
2023-01-15T14:51:47.282Z,68.94
2023-01-15T14:52:47.280Z,69.15
2023-01-15T14:53:47.248Z,68.53
2023-01-15T14:54:47.463Z,69.04
2023-01-15T14:55:47.249Z,68.94
2023-01-15T14:56:47.230Z,68.63
2023-01-15T14:57:47.269Z,69.25
2023-01-15T14:58:47.219Z,69.15
2023-01-15T14:59:47.175Z,68.94
2023-01-15T15:00:47.215Z,69.87
2023-01-15T15:01:47.310Z,69.90
2023-01-15T15:02:47.244Z,68.98
2023-01-15T15:03:47.168Z,68.94
2023-01-15T15:04:47.123Z,68.84
2023-01-15T15:05:47.179Z,68.84
2023-01-15T15:06:47.109Z,68.84
2023-01-15T15:07:47.096Z,69.56
2023-01-15T15:08:47.065Z,69.38
2023-01-15T15:09:47.057Z,69.38
2023-01-15T15:10:47.045Z,69.04
2023-01-15T15:11:47.034Z,68.94
2023-01-15T15:12:47.043Z,69.04
2023-01-15T15:13:46.996Z,68.94
2023-01-15T15:14:48.710Z,69.49
2023-01-15T15:15:46.970Z,69.49
2023-01-15T15:16:47.012Z,69.49
2023-01-15T15:17:46.964Z,69.70
2023-01-15T15:18:46.942Z,69.59
2023-01-15T15:19:46.942Z,69.59
2023-01-15T15:20:46.912Z,69.79
2023-01-15T15:21:46.890Z,69.18
2023-01-15T15:22:46.906Z,69.49
2023-01-15T15:23:46.868Z,69.38
2023-01-15T15:24:46.889Z,69.79
2023-01-15T15:25:46.833Z,69.79
2023-01-15T15:26:46.843Z,69.90
2023-01-15T15:27:46.852Z,70.00
2023-01-15T15:28:46.811Z,69.70
2023-01-15T15:29:46.796Z,70.21
2023-01-15T15:30:47.009Z,69.70
2023-01-15T15:31:46.771Z,69.70
2023-01-15T15:32:46.763Z,69.90
2023-01-15T15:33:46.764Z,70.21
2023-01-15T15:34:46.721Z,70.42
2023-01-15T15:35:46.720Z,70.42
2023-01-15T15:36:46.703Z,69.90
2023-01-15T15:37:46.697Z,70.10
2023-01-15T15:38:46.684Z,70.00
2023-01-15T15:39:46.666Z,70.21
2023-01-15T15:40:46.651Z,69.90
2023-01-15T15:41:46.630Z,70.62
2023-01-15T15:42:46.638Z,70.42
2023-01-15T15:43:46.667Z,70.62
2023-01-15T15:44:46.600Z,70.93
2023-01-15T15:45:46.644Z,71.24
2023-01-15T15:46:46.608Z,71.03
2023-01-15T15:47:46.596Z,70.93
2023-01-15T15:48:46.565Z,70.62
2023-01-15T15:49:46.530Z,71.03
2023-01-15T15:50:46.516Z,71.14
2023-01-15T15:51:46.520Z,71.34
2023-01-15T15:52:46.502Z,71.34
2023-01-15T15:53:46.479Z,70.93
2023-01-15T15:54:46.458Z,70.62
2023-01-15T15:55:46.457Z,70.62
2023-01-15T15:56:46.446Z,70.83
2023-01-15T15:57:46.443Z,70.93
2023-01-15T15:58:46.437Z,71.14
2023-01-15T15:59:46.432Z,71.24
2023-01-15T16:00:46.398Z,71.14
2023-01-15T16:01:46.451Z,71.03
2023-01-15T16:02:46.481Z,71.24
2023-01-15T16:03:46.368Z,71.14
2023-01-15T16:04:46.336Z,71.14
2023-01-15T16:05:46.327Z,71.55
2023-01-15T16:06:46.312Z,71.24
2023-01-15T16:07:46.312Z,71.03
2023-01-15T16:08:46.285Z,71.14
2023-01-15T16:09:46.276Z,70.62
2023-01-15T16:10:46.277Z,70.42
2023-01-15T16:11:46.296Z,70.72
2023-01-15T16:12:46.261Z,70.62
2023-01-15T16:13:46.209Z,71.14
2023-01-15T16:14:46.217Z,70.83
2023-01-15T16:15:46.259Z,70.52
2023-01-15T16:16:46.195Z,70.21
2023-01-15T16:17:46.166Z,70.00
2023-01-15T16:18:46.154Z,70.21
2023-01-15T16:19:46.146Z,70.10
2023-01-15T16:20:46.135Z,70.42
2023-01-15T16:21:46.135Z,70.83
2023-01-15T16:22:46.136Z,71.14
2023-01-15T16:23:46.103Z,70.72
2023-01-15T16:24:46.079Z,70.52
2023-01-15T16:25:46.065Z,70.72
2023-01-15T16:26:46.051Z,70.83
2023-01-15T16:27:46.063Z,70.52
2023-01-15T16:28:46.042Z,70.62
2023-01-15T16:29:46.056Z,70.62
2023-01-15T16:30:46.045Z,71.34
2023-01-15T16:31:45.981Z,71.03
2023-01-15T16:32:45.999Z,71.03
2023-01-15T16:33:45.963Z,71.24
2023-01-15T16:34:45.962Z,70.83
2023-01-15T16:35:45.943Z,71.03
2023-01-15T16:36:45.930Z,71.34
2023-01-15T16:37:45.928Z,71.27
2023-01-15T16:38:45.923Z,71.27
2023-01-15T16:39:45.907Z,71.37
2023-01-15T16:40:45.872Z,71.27
2023-01-15T16:41:45.853Z,71.37
2023-01-15T16:42:45.868Z,71.58
2023-01-15T16:43:45.824Z,71.58
2023-01-15T16:44:45.817Z,71.69
2023-01-15T16:45:45.812Z,71.58
2023-01-15T16:46:45.791Z,72.09
2023-01-15T16:47:45.785Z,71.89
2023-01-15T16:48:45.772Z,72.09
2023-01-15T16:49:45.770Z,72.51
2023-01-15T16:50:45.757Z,72.51
2023-01-15T16:51:45.733Z,72.30
2023-01-15T16:52:45.740Z,72.61
2023-01-15T16:53:45.742Z,72.51
2023-01-15T16:54:45.726Z,72.61
2023-01-15T16:55:45.686Z,72.61
2023-01-15T16:56:45.676Z,72.51
2023-01-15T16:57:45.650Z,72.41
2023-01-15T16:58:45.639Z,72.30
2023-01-15T16:59:45.640Z,72.09
2023-01-15T17:00:45.614Z,72.71
2023-01-15T17:01:45.672Z,72.71
2023-01-15T17:02:45.599Z,72.51
2023-01-15T17:03:45.598Z,72.61
2023-01-15T17:04:45.638Z,73.02
2023-01-15T17:05:45.530Z,72.92
2023-01-15T17:06:45.529Z,72.92
2023-01-15T17:07:45.520Z,73.13
2023-01-15T17:08:45.510Z,72.81
2023-01-15T17:09:45.503Z,73.13
2023-01-15T17:10:45.479Z,73.13
2023-01-15T17:11:45.470Z,73.13
2023-01-15T17:12:45.473Z,73.13
2023-01-15T17:13:45.441Z,73.36
2023-01-15T17:14:45.500Z,73.57
2023-01-15T17:15:45.470Z,73.36
2023-01-15T17:16:45.407Z,73.88
2023-01-15T17:17:45.408Z,73.36
2023-01-15T17:18:45.407Z,73.78
2023-01-15T17:19:45.363Z,73.78
2023-01-15T17:20:45.382Z,73.57
2023-01-15T17:21:45.336Z,73.26
2023-01-15T17:22:45.343Z,73.13
2023-01-15T17:23:45.323Z,73.23
2023-01-15T17:24:45.303Z,73.02
2023-01-15T17:25:45.319Z,72.81
2023-01-15T17:26:45.278Z,73.33
2023-01-15T17:27:45.278Z,72.92
2023-01-15T17:28:45.252Z,72.92
2023-01-15T17:29:45.224Z,72.71
2023-01-15T17:30:45.224Z,72.61
2023-01-15T17:31:45.205Z,72.51
2023-01-15T17:32:45.206Z,72.61
2023-01-15T17:33:45.192Z,72.81
2023-01-15T17:34:45.191Z,72.20
2023-01-15T17:35:45.191Z,72.09
2023-01-15T17:36:45.150Z,72.71
2023-01-15T17:37:45.135Z,73.02
2023-01-15T17:38:45.132Z,73.13
2023-01-15T17:39:45.096Z,72.61
2023-01-15T17:40:45.093Z,72.51
2023-01-15T17:41:45.083Z,72.41
2023-01-15T17:42:45.075Z,72.61
2023-01-15T17:43:45.063Z,72.51
2023-01-15T17:44:45.033Z,72.41
2023-01-15T17:45:45.054Z,72.81
2023-01-15T17:46:45.113Z,72.81
2023-01-15T17:47:45.001Z,72.71
2023-01-15T17:48:44.980Z,72.71
2023-01-15T17:49:44.977Z,73.02
2023-01-15T17:50:44.963Z,72.51
2023-01-15T17:51:44.947Z,72.61
2023-01-15T17:52:44.950Z,72.71
2023-01-15T17:53:44.918Z,72.71
2023-01-15T17:54:44.912Z,72.81
2023-01-15T17:55:44.894Z,72.71
2023-01-15T17:56:44.885Z,72.71
2023-01-15T17:57:44.859Z,72.71
2023-01-15T17:58:44.894Z,72.81
2023-01-15T17:59:44.849Z,72.92
2023-01-15T18:00:45.188Z,72.71
2023-01-15T18:01:44.909Z,73.13
2023-01-15T18:02:44.849Z,73.02
2023-01-15T18:03:44.803Z,72.71
2023-01-15T18:04:44.781Z,73.02
2023-01-15T18:05:44.770Z,72.81
2023-01-15T18:06:44.753Z,72.92
2023-01-15T18:07:44.739Z,73.33
2023-01-15T18:08:44.735Z,73.33
2023-01-15T18:09:44.719Z,73.64
2023-01-15T18:10:44.703Z,73.54
2023-01-15T18:11:44.685Z,73.43
2023-01-15T18:12:44.676Z,73.64
2023-01-15T18:13:44.670Z,73.54
2023-01-15T18:14:44.649Z,73.64
2023-01-15T18:15:44.769Z,73.74
2023-01-15T18:16:44.630Z,73.95
2023-01-15T18:17:44.622Z,73.85
2023-01-15T18:18:44.618Z,74.05
2023-01-15T18:19:44.589Z,73.54
2023-01-15T18:20:44.574Z,73.95
2023-01-15T18:21:44.569Z,74.05
2023-01-15T18:22:44.539Z,74.16
2023-01-15T18:23:44.552Z,74.16
2023-01-15T18:24:44.515Z,74.16
2023-01-15T18:25:44.516Z,74.26
2023-01-15T18:26:44.526Z,74.46
2023-01-15T18:27:44.479Z,74.40
2023-01-15T18:28:44.483Z,74.50
2023-01-15T18:29:44.483Z,74.91
2023-01-15T18:30:44.459Z,74.40
2023-01-15T18:31:44.491Z,74.40
2023-01-15T18:32:44.418Z,74.29
2023-01-15T18:33:44.419Z,74.26
2023-01-15T18:34:44.386Z,74.29
2023-01-15T18:35:44.414Z,74.26
2023-01-15T18:36:44.362Z,73.74
2023-01-15T18:37:44.357Z,74.05
2023-01-15T18:38:44.345Z,74.26
2023-01-15T18:39:44.334Z,74.16
2023-01-15T18:40:44.312Z,74.16
2023-01-15T18:41:44.309Z,73.85
2023-01-15T18:42:44.285Z,73.74
2023-01-15T18:43:44.288Z,73.95
2023-01-15T18:44:44.264Z,74.26
2023-01-15T18:45:44.253Z,73.95
2023-01-15T18:46:44.304Z,73.64
2023-01-15T18:47:44.229Z,74.05
2023-01-15T18:48:44.212Z,74.16
2023-01-15T18:49:44.263Z,74.50
2023-01-15T18:50:45.155Z,74.19
2023-01-15T18:51:44.185Z,74.40
2023-01-15T18:52:44.165Z,74.91
2023-01-15T18:53:44.174Z,74.80
2023-01-15T18:54:44.134Z,74.29
2023-01-15T18:55:44.123Z,74.29
2023-01-15T18:56:44.110Z,74.19
2023-01-15T18:57:44.094Z,74.50
2023-01-15T18:58:44.081Z,74.60
2023-01-15T18:59:44.078Z,74.60
2023-01-15T19:00:44.122Z,74.40
2023-01-15T19:01:44.133Z,74.80
2023-01-15T19:02:44.037Z,74.91
2023-01-15T19:03:44.033Z,74.91
2023-01-15T19:04:44.012Z,74.80
2023-01-15T19:05:43.999Z,74.91
2023-01-15T19:06:43.995Z,74.80
2023-01-15T19:07:43.979Z,75.12
2023-01-15T19:08:43.989Z,75.12
2023-01-15T19:09:43.964Z,74.91
2023-01-15T19:10:43.920Z,74.71
2023-01-15T19:11:43.922Z,74.80
2023-01-15T19:12:43.908Z,74.40
2023-01-15T19:13:43.931Z,74.60
2023-01-15T19:14:43.869Z,74.80
2023-01-15T19:15:43.893Z,74.60
2023-01-15T19:16:43.867Z,74.71
2023-01-15T19:17:43.860Z,74.80
2023-01-15T19:18:44.113Z,75.01
2023-01-15T19:19:43.837Z,74.80
2023-01-15T19:20:43.818Z,74.40
2023-01-15T19:21:43.803Z,74.80
2023-01-15T19:22:43.789Z,74.40
2023-01-15T19:23:43.790Z,74.71
2023-01-15T19:24:43.772Z,74.71
2023-01-15T19:25:43.761Z,74.60
2023-01-15T19:26:43.753Z,74.91
2023-01-15T19:27:43.735Z,75.01
2023-01-15T19:28:43.721Z,74.71
2023-01-15T19:29:43.699Z,74.60
2023-01-15T19:30:43.684Z,74.50
2023-01-15T19:31:43.769Z,74.50
2023-01-15T19:32:43.660Z,74.60
2023-01-15T19:33:43.680Z,74.08
2023-01-15T19:34:43.629Z,74.08
2023-01-15T19:35:43.619Z,74.08
2023-01-15T19:36:43.611Z,74.08
2023-01-15T19:37:43.610Z,74.08
2023-01-15T19:38:43.597Z,74.40
2023-01-15T19:39:43.581Z,74.19
2023-01-15T19:40:43.568Z,74.29
2023-01-15T19:41:43.556Z,74.08
2023-01-15T19:42:43.574Z,74.29
2023-01-15T19:43:43.566Z,74.40
2023-01-15T19:44:43.525Z,74.50
2023-01-15T19:45:43.497Z,73.98
2023-01-15T19:46:43.566Z,74.08
2023-01-15T19:47:43.554Z,74.29
2023-01-15T19:48:43.465Z,74.60
2023-01-15T19:49:43.494Z,74.19
2023-01-15T19:50:43.430Z,74.08
2023-01-15T19:51:43.428Z,74.08
2023-01-15T19:52:43.420Z,73.88
2023-01-15T19:53:43.401Z,73.57
2023-01-15T19:54:43.385Z,73.88
2023-01-15T19:55:43.373Z,73.88
2023-01-15T19:56:43.355Z,73.78
2023-01-15T19:57:43.349Z,73.98
2023-01-15T19:58:43.346Z,73.98
2023-01-15T19:59:43.324Z,74.08
2023-01-15T20:00:43.353Z,73.68
2023-01-15T20:01:43.375Z,73.98
2023-01-15T20:02:43.314Z,73.78
2023-01-15T20:03:43.300Z,73.98
2023-01-15T20:04:43.268Z,74.08
2023-01-15T20:05:43.255Z,74.40
2023-01-15T20:06:43.244Z,74.50
2023-01-15T20:07:43.228Z,74.84
2023-01-15T20:08:43.214Z,74.53
2023-01-15T20:09:43.194Z,74.84
2023-01-15T20:10:43.176Z,74.74
2023-01-15T20:11:43.178Z,74.53
2023-01-15T20:12:43.160Z,74.43
2023-01-15T20:13:43.195Z,74.74
2023-01-15T20:14:43.126Z,74.53
2023-01-15T20:15:43.113Z,74.74
2023-01-15T20:16:43.162Z,74.74
2023-01-15T20:17:43.115Z,75.05
2023-01-15T20:18:43.113Z,75.15
2023-01-15T20:19:43.080Z,74.95
2023-01-15T20:20:43.108Z,75.15
2023-01-15T20:21:43.070Z,75.05
2023-01-15T20:22:43.036Z,75.15
2023-01-15T20:23:43.160Z,75.15
2023-01-15T20:24:42.992Z,75.26
2023-01-15T20:25:42.991Z,75.36
2023-01-15T20:26:42.973Z,75.67
2023-01-15T20:27:42.959Z,75.67
2023-01-15T20:28:43.062Z,75.91
2023-01-15T20:29:42.938Z,76.01
2023-01-15T20:30:42.913Z,76.01
2023-01-15T20:31:43.014Z,76.12
2023-01-15T20:32:42.896Z,76.01
2023-01-15T20:33:42.899Z,76.21
2023-01-15T20:34:42.870Z,76.21
2023-01-15T20:35:42.875Z,76.32
2023-01-15T20:36:42.898Z,76.12
2023-01-15T20:37:42.830Z,76.32
2023-01-15T20:38:42.943Z,76.32
2023-01-15T20:39:42.822Z,76.12
2023-01-15T20:40:42.792Z,75.91
2023-01-15T20:41:42.781Z,75.81
2023-01-15T20:42:42.770Z,75.70
2023-01-15T20:43:42.790Z,76.01
2023-01-15T20:44:42.740Z,76.12
2023-01-15T20:45:42.768Z,76.21
2023-01-15T20:46:42.739Z,76.12
2023-01-15T20:47:42.716Z,76.12
2023-01-15T20:48:42.703Z,76.32
2023-01-15T20:49:42.679Z,76.32
2023-01-15T20:50:42.735Z,76.63
2023-01-15T20:51:42.711Z,76.84
2023-01-15T20:52:42.644Z,76.84
2023-01-15T20:53:42.642Z,76.84
2023-01-15T20:54:42.608Z,76.73
2023-01-15T20:55:55.903Z,77.15
2023-01-15T20:56:43.592Z,77.15
2023-01-15T20:57:42.578Z,77.35
2023-01-15T20:58:42.630Z,77.15
2023-01-15T20:59:42.573Z,76.73
2023-01-15T21:00:42.567Z,76.63
2023-01-15T21:01:42.647Z,76.84
2023-01-15T21:02:42.505Z,76.94
2023-01-15T21:03:42.665Z,77.25
2023-01-15T21:04:42.605Z,77.35
2023-01-15T21:05:42.613Z,77.35
2023-01-15T21:06:42.581Z,77.45
2023-01-15T21:07:42.539Z,77.45
2023-01-15T21:08:42.478Z,77.04
2023-01-15T21:09:42.418Z,77.35
2023-01-15T21:10:42.483Z,77.35
2023-01-15T21:11:42.412Z,77.35
2023-01-15T21:12:42.377Z,77.35
2023-01-15T21:13:42.376Z,77.66
2023-01-15T21:14:42.372Z,77.66
2023-01-15T21:15:44.053Z,77.66
2023-01-15T21:16:42.458Z,77.66
2023-01-15T21:17:42.336Z,77.66
2023-01-15T21:18:42.327Z,77.35
2023-01-15T21:19:42.326Z,77.45
2023-01-15T21:20:42.273Z,77.35
2023-01-15T21:21:42.289Z,77.66
2023-01-15T21:22:42.263Z,77.87
2023-01-15T21:23:42.266Z,77.97
2023-01-15T21:24:42.275Z,78.11
2023-01-15T21:25:42.222Z,78.31
2023-01-15T21:26:42.227Z,78.31
2023-01-15T21:27:42.202Z,78.21
2023-01-15T21:28:42.194Z,78.31
2023-01-15T21:29:42.191Z,78.52
2023-01-15T21:30:42.163Z,78.31
2023-01-15T21:31:42.240Z,78.21
2023-01-15T21:32:42.128Z,78.21
2023-01-15T21:33:42.132Z,78.52
2023-01-15T21:34:42.120Z,78.31
2023-01-15T21:35:42.090Z,78.52
2023-01-15T21:36:42.079Z,78.31
2023-01-15T21:37:42.071Z,78.52
2023-01-15T21:38:42.045Z,78.63
2023-01-15T21:39:42.059Z,78.52
2023-01-15T21:40:42.021Z,78.63
2023-01-15T21:41:42.029Z,78.83
2023-01-15T21:42:42.003Z,79.04
2023-01-15T21:43:41.988Z,78.94
2023-01-15T21:44:41.999Z,78.83
2023-01-15T21:45:42.089Z,79.04
2023-01-15T21:46:41.958Z,79.28
2023-01-15T21:47:41.940Z,79.49
2023-01-15T21:48:41.951Z,79.59
2023-01-15T21:49:41.927Z,79.80
2023-01-15T21:50:41.911Z,79.90
2023-01-15T21:51:41.906Z,80.11
2023-01-15T21:52:41.870Z,80.32
2023-01-15T21:53:41.857Z,80.46
2023-01-15T21:54:41.878Z,80.56
2023-01-15T21:55:41.842Z,80.66
2023-01-15T21:56:41.811Z,80.66
2023-01-15T21:57:41.808Z,80.42
2023-01-15T21:58:41.789Z,80.21
2023-01-15T21:59:41.800Z,80.35
2023-01-15T22:00:41.767Z,80.35
2023-01-15T22:01:41.967Z,80.46
2023-01-15T22:02:41.770Z,80.56
2023-01-15T22:03:41.727Z,80.87
2023-01-15T22:04:41.726Z,81.07
2023-01-15T22:05:41.728Z,81.18
2023-01-15T22:06:41.689Z,81.49
2023-01-15T22:07:41.677Z,81.59
2023-01-15T22:08:41.693Z,81.90
2023-01-15T22:09:41.666Z,81.94
2023-01-15T22:10:41.638Z,82.04
2023-01-15T22:11:41.675Z,82.15
2023-01-15T22:12:41.612Z,82.21
2023-01-15T22:13:41.599Z,82.42
2023-01-15T22:14:41.595Z,82.42
2023-01-15T22:15:41.584Z,82.31
2023-01-15T22:16:41.629Z,82.56
2023-01-15T22:17:41.553Z,82.76
2023-01-15T22:18:41.543Z,83.18
2023-01-15T22:19:41.546Z,83.39
2023-01-15T22:20:41.504Z,83.59
2023-01-15T22:21:41.495Z,83.70
2023-01-15T22:22:41.487Z,83.80
2023-01-15T22:23:41.480Z,83.70
2023-01-15T22:24:41.474Z,83.80
2023-01-15T22:25:41.447Z,83.59
2023-01-15T22:26:41.427Z,83.80
2023-01-15T22:27:41.424Z,84.00
2023-01-15T22:28:41.402Z,84.11
2023-01-15T22:29:41.415Z,84.21
2023-01-15T22:30:41.411Z,84.31
2023-01-15T22:31:41.363Z,84.66
2023-01-15T22:32:41.357Z,84.77
2023-01-15T22:33:41.339Z,85.18
2023-01-15T22:34:41.342Z,85.28
2023-01-15T22:35:41.323Z,85.28
2023-01-15T22:36:41.303Z,85.39
2023-01-15T22:37:41.291Z,85.39
2023-01-15T22:38:41.275Z,85.60
2023-01-15T22:39:41.299Z,85.49
2023-01-15T22:40:41.258Z,85.39
2023-01-15T22:41:41.231Z,85.14
2023-01-15T22:42:41.221Z,84.94
2023-01-15T22:43:41.224Z,85.14
2023-01-15T22:44:41.235Z,85.14
2023-01-15T22:45:41.183Z,85.14
2023-01-15T22:46:41.175Z,85.04
2023-01-15T22:47:41.151Z,85.24
2023-01-15T22:48:41.141Z,85.24
2023-01-15T22:49:41.168Z,85.45
2023-01-15T22:50:41.118Z,85.45
2023-01-15T22:51:41.105Z,85.66
2023-01-15T22:52:41.095Z,85.66
2023-01-15T22:53:41.103Z,85.76
2023-01-15T22:54:41.090Z,85.80
2023-01-15T22:55:41.082Z,85.91
2023-01-15T22:56:41.046Z,86.01
2023-01-15T22:57:41.031Z,86.32
2023-01-15T22:58:41.019Z,86.32
2023-01-15T22:59:41.029Z,86.21
2023-01-15T23:00:40.988Z,86.52
2023-01-15T23:01:41.039Z,86.52
2023-01-15T23:02:40.968Z,86.63
2023-01-15T23:03:40.942Z,86.73
2023-01-15T23:04:41.007Z,86.83
2023-01-15T23:05:40.931Z,86.73
2023-01-15T23:06:40.917Z,86.94
2023-01-15T23:07:41.560Z,87.04
2023-01-15T23:08:40.896Z,87.15
2023-01-15T23:09:40.878Z,87.15
2023-01-15T23:10:40.872Z,87.15
2023-01-15T23:11:40.857Z,87.25
2023-01-15T23:12:40.833Z,87.35
2023-01-15T23:13:40.838Z,87.81
2023-01-15T23:14:40.822Z,87.81
2023-01-15T23:15:40.822Z,87.91
2023-01-15T23:16:40.804Z,87.70
2023-01-15T23:17:40.813Z,87.70
2023-01-15T23:18:40.784Z,87.81
2023-01-15T23:19:40.746Z,87.91
2023-01-15T23:20:40.735Z,88.01
2023-01-15T23:21:40.728Z,88.22
2023-01-15T23:22:40.701Z,88.22
2023-01-15T23:23:40.694Z,88.22
2023-01-15T23:24:40.738Z,88.43
2023-01-15T23:25:40.667Z,88.43
2023-01-15T23:26:40.654Z,88.22
2023-01-15T23:27:40.638Z,88.12
2023-01-15T23:28:40.636Z,88.01
2023-01-15T23:29:40.636Z,87.91
2023-01-15T23:30:40.698Z,88.01
2023-01-15T23:31:40.598Z,88.01
2023-01-15T23:32:40.621Z,87.91
2023-01-15T23:33:40.564Z,87.70
2023-01-15T23:34:40.577Z,87.70
2023-01-15T23:35:40.559Z,87.49
2023-01-15T23:36:40.546Z,87.49
2023-01-15T23:37:40.524Z,87.49
2023-01-15T23:38:40.501Z,87.60
2023-01-15T23:39:40.502Z,87.70
2023-01-15T23:40:40.471Z,87.74
2023-01-15T23:41:40.491Z,87.95
2023-01-15T23:42:43.765Z,88.06
2023-01-15T23:43:40.431Z,88.06
2023-01-15T23:44:40.496Z,88.16
2023-01-15T23:45:40.394Z,88.06
2023-01-15T23:46:40.495Z,88.36
2023-01-15T23:47:40.390Z,88.26
2023-01-15T23:48:40.409Z,87.81
2023-01-15T23:49:40.371Z,87.60
2023-01-15T23:50:40.354Z,87.49
2023-01-15T23:51:40.337Z,87.70
2023-01-15T23:52:40.323Z,87.81
2023-01-15T23:53:40.302Z,87.91
2023-01-15T23:54:40.290Z,87.70
2023-01-15T23:55:40.291Z,87.81
2023-01-15T23:56:40.301Z,87.81
2023-01-15T23:57:40.262Z,87.60
2023-01-15T23:58:40.244Z,87.70
2023-01-15T23:59:40.247Z,87.49
